createdAt,value
2022-10-11T00:01:12.048Z,20.90
2022-10-11T00:03:42.343Z,20.90
2022-10-11T00:06:12.985Z,20.90
2022-10-11T00:08:43.394Z,21.00
2022-10-11T00:11:14.131Z,21.00
2022-10-11T00:13:44.431Z,21.00
2022-10-11T00:16:17.044Z,21.00
2022-10-11T00:18:47.129Z,21.00
2022-10-11T00:21:18.869Z,21.00
2022-10-11T00:23:48.994Z,21.00
2022-10-11T00:26:19.924Z,21.00
2022-10-11T00:28:50.082Z,21.10
2022-10-11T00:31:20.312Z,21.00
2022-10-11T00:33:50.484Z,21.00
2022-10-11T00:36:20.893Z,21.10
2022-10-11T00:38:51.190Z,21.10
2022-10-11T00:41:21.855Z,21.10
2022-10-11T00:44:09.956Z,21.10
2022-10-11T00:46:43.170Z,21.10
2022-10-11T00:49:38.007Z,21.10
2022-10-11T00:52:33.972Z,21.10
2022-10-11T00:55:16.077Z,21.10
2022-10-11T00:57:51.162Z,21.10
2022-10-11T01:00:22.595Z,21.10
2022-10-11T01:02:53.077Z,21.10
2022-10-11T01:05:29.495Z,21.10
2022-10-11T01:08:02.552Z,21.10
2022-10-11T01:10:33.088Z,21.00
2022-10-11T01:13:33.897Z,21.00
2022-10-11T01:16:32.776Z,21.00
2022-10-11T01:19:43.752Z,21.00
2022-10-11T01:22:16.707Z,21.00
2022-10-11T01:25:08.054Z,21.00
2022-10-11T01:27:49.862Z,21.00
2022-10-11T01:30:27.891Z,21.00
2022-10-11T01:33:06.736Z,20.90
2022-10-11T01:36:04.258Z,20.90
2022-10-11T01:38:40.260Z,20.90
2022-10-11T01:41:22.913Z,20.90
2022-10-11T01:43:59.112Z,20.90
2022-10-11T01:46:30.967Z,20.90
2022-10-11T01:49:03.709Z,20.90
2022-10-11T01:51:47.193Z,20.90
2022-10-11T01:55:14.035Z,20.90
2022-10-11T01:58:32.818Z,20.90
2022-10-11T02:01:39.895Z,20.90
2022-10-11T02:04:31.404Z,20.90
2022-10-11T02:07:35.576Z,20.90
2022-10-11T02:10:23.985Z,20.90
2022-10-11T02:13:20.847Z,20.90
2022-10-11T02:15:52.865Z,20.90
2022-10-11T02:18:27.597Z,20.90
2022-10-11T02:21:02.392Z,20.90
2022-10-11T02:24:04.282Z,20.90
2022-10-11T02:26:35.766Z,20.90
2022-10-11T02:29:09.463Z,20.90
2022-10-11T02:31:40.376Z,20.90
2022-10-11T02:34:33.996Z,20.90
2022-10-11T02:37:39.210Z,20.90
2022-10-11T02:40:33.275Z,20.90
2022-10-11T02:43:13.118Z,20.90
2022-10-11T02:46:03.194Z,20.90
2022-10-11T02:48:38.133Z,20.90
2022-10-11T02:51:13.849Z,20.90
2022-10-11T02:53:44.271Z,21.00
2022-10-11T02:56:14.416Z,20.90
2022-10-11T02:58:44.577Z,20.90
2022-10-11T03:01:14.859Z,21.00
2022-10-11T03:03:45.090Z,20.90
2022-10-11T03:06:16.407Z,21.00
2022-10-11T03:08:46.752Z,21.00
2022-10-11T03:11:17.082Z,21.00
2022-10-11T03:13:47.281Z,21.00
2022-10-11T03:16:17.572Z,21.00
2022-10-11T03:18:47.992Z,21.00
2022-10-11T03:21:18.396Z,21.00
2022-10-11T03:23:48.524Z,21.00
2022-10-11T03:26:18.637Z,21.00
2022-10-11T03:28:48.733Z,21.10
2022-10-11T03:31:20.272Z,21.10
2022-10-11T03:33:50.532Z,21.10
2022-10-11T03:36:21.094Z,21.10
2022-10-11T03:38:51.335Z,21.10
2022-10-11T03:41:21.741Z,21.10
2022-10-11T03:43:51.855Z,21.10
2022-10-11T03:46:22.175Z,21.10
2022-10-11T03:48:52.317Z,21.20
2022-10-11T03:51:22.512Z,21.20
2022-10-11T03:53:52.716Z,21.20
2022-10-11T03:56:22.853Z,21.20
2022-10-11T03:58:52.994Z,21.20
2022-10-11T04:01:23.267Z,21.30
2022-10-11T04:03:53.457Z,21.30
2022-10-11T04:06:23.587Z,21.30
2022-10-11T04:08:53.876Z,21.30
2022-10-11T04:11:23.972Z,21.30
2022-10-11T04:13:54.099Z,21.30
2022-10-11T04:16:24.201Z,21.40
2022-10-11T04:18:54.459Z,21.40
2022-10-11T04:21:24.595Z,21.30
2022-10-11T04:23:54.709Z,21.30
2022-10-11T04:26:24.839Z,21.30
2022-10-11T04:28:55.061Z,21.40
2022-10-11T04:31:25.574Z,21.40
2022-10-11T04:33:55.684Z,21.40
2022-10-11T04:36:26.569Z,21.40
2022-10-11T04:38:57.855Z,21.40
2022-10-11T04:41:28.013Z,21.40
2022-10-11T04:43:58.291Z,21.40
2022-10-11T04:46:28.814Z,21.40
2022-10-11T04:48:59.344Z,21.40
2022-10-11T04:51:30.445Z,21.40
2022-10-11T04:54:00.545Z,21.40
2022-10-11T04:56:32.234Z,21.50
2022-10-11T04:59:02.369Z,21.40
2022-10-11T05:01:32.617Z,21.40
2022-10-11T05:04:02.789Z,21.40
2022-10-11T05:06:32.994Z,21.40
2022-10-11T05:09:03.265Z,21.40
2022-10-11T05:11:33.818Z,21.40
2022-10-11T05:14:04.071Z,21.40
2022-10-11T05:16:34.218Z,21.40
2022-10-11T05:19:04.445Z,21.40
2022-10-11T05:21:34.863Z,21.40
2022-10-11T05:24:05.045Z,21.40
2022-10-11T05:26:35.244Z,21.40
2022-10-11T05:29:05.767Z,21.40
2022-10-11T05:31:35.946Z,21.40
2022-10-11T05:34:06.612Z,21.40
2022-10-11T05:36:36.810Z,21.40
2022-10-11T05:39:07.177Z,21.40
2022-10-11T05:41:37.528Z,21.40
2022-10-11T05:44:09.450Z,21.40
2022-10-11T05:46:39.565Z,21.40
2022-10-11T05:49:09.846Z,21.40
2022-10-11T05:51:40.087Z,21.40
2022-10-11T05:54:10.267Z,21.50
2022-10-11T05:56:40.530Z,21.50
2022-10-11T05:59:10.640Z,21.50
2022-10-11T06:01:40.933Z,21.40
2022-10-11T06:04:13.358Z,21.50
2022-10-11T06:06:43.581Z,21.50
2022-10-11T06:09:14.347Z,21.50
2022-10-11T06:11:45.799Z,21.50
2022-10-11T06:14:15.941Z,21.50
2022-10-11T06:16:46.049Z,21.50
2022-10-11T06:19:16.232Z,21.50
2022-10-11T06:21:47.497Z,21.50
2022-10-11T06:24:18.059Z,21.50
2022-10-11T06:26:50.669Z,21.50
2022-10-11T06:29:21.411Z,21.50
2022-10-11T06:31:52.223Z,21.50
2022-10-11T06:34:22.627Z,21.50
2022-10-11T06:36:52.964Z,21.50
2022-10-11T06:39:23.207Z,21.50
2022-10-11T06:41:53.437Z,21.50
2022-10-11T06:44:23.696Z,21.50
2022-10-11T06:46:54.055Z,21.50
2022-10-11T06:49:24.197Z,21.50
2022-10-11T06:51:54.763Z,21.50
2022-10-11T06:54:24.894Z,21.50
2022-10-11T06:56:55.121Z,21.50
2022-10-11T06:59:28.649Z,21.50
2022-10-11T07:01:58.804Z,21.50
2022-10-11T07:04:30.420Z,21.50
2022-10-11T07:07:00.485Z,21.50
2022-10-11T07:09:30.792Z,21.50
2022-10-11T07:12:00.930Z,21.40
2022-10-11T07:14:31.249Z,21.50
2022-10-11T07:17:01.602Z,21.40
2022-10-11T07:19:32.761Z,21.50
2022-10-11T07:22:03.043Z,21.40
2022-10-11T07:24:33.131Z,21.40
2022-10-11T07:27:03.455Z,21.40
2022-10-11T07:29:33.679Z,21.40
2022-10-11T07:32:04.056Z,21.40
2022-10-11T07:34:34.273Z,21.40
2022-10-11T07:37:10.529Z,21.40
2022-10-11T07:39:40.721Z,21.40
2022-10-11T07:42:11.620Z,21.40
2022-10-11T07:44:41.800Z,21.40
2022-10-11T07:47:11.959Z,21.50
2022-10-11T07:49:42.145Z,21.50
2022-10-11T07:52:12.573Z,21.50
2022-10-11T07:54:42.916Z,21.50
2022-10-11T07:57:13.267Z,21.40
2022-10-11T07:59:47.835Z,21.50
2022-10-11T08:02:20.631Z,21.40
2022-10-11T08:04:50.978Z,21.40
2022-10-11T08:07:21.443Z,21.50
2022-10-11T08:09:52.284Z,21.40
2022-10-11T08:12:22.737Z,21.40
2022-10-11T08:14:53.092Z,21.50
2022-10-11T08:17:23.870Z,21.50
2022-10-11T08:19:54.840Z,21.50
2022-10-11T08:22:25.225Z,21.50
2022-10-11T08:24:55.411Z,21.50
2022-10-11T08:27:25.652Z,21.60
2022-10-11T08:29:56.010Z,21.50
2022-10-11T08:32:26.176Z,21.60
2022-10-11T08:34:56.274Z,21.60
2022-10-11T08:37:26.431Z,21.60
2022-10-11T08:39:56.666Z,21.60
2022-10-11T08:43:16.547Z,21.60
2022-10-11T08:45:55.221Z,21.60
2022-10-11T08:48:49.640Z,21.50
2022-10-11T08:51:25.949Z,21.50
2022-10-11T08:54:25.625Z,21.50
2022-10-11T08:56:56.010Z,21.50
2022-10-11T08:59:43.394Z,21.50
2022-10-11T09:03:07.043Z,21.50
2022-10-11T09:05:38.896Z,21.50
2022-10-11T09:08:09.015Z,21.50
2022-10-11T09:10:56.213Z,21.50
2022-10-11T09:13:55.044Z,21.50
2022-10-11T09:16:44.798Z,21.50
2022-10-11T09:19:48.133Z,21.50
2022-10-11T09:22:33.501Z,21.50
2022-10-11T09:25:25.594Z,21.40
2022-10-11T09:28:21.294Z,21.40
2022-10-11T09:30:55.145Z,21.40
2022-10-11T09:33:42.272Z,21.40
2022-10-11T09:36:19.608Z,21.40
2022-10-11T09:38:57.887Z,21.40
2022-10-11T09:41:59.764Z,21.40
2022-10-11T09:44:32.508Z,21.50
2022-10-11T09:47:03.215Z,21.40
2022-10-11T09:49:46.832Z,21.40
2022-10-11T09:52:25.472Z,21.40
2022-10-11T09:55:04.635Z,21.30
2022-10-11T09:57:38.126Z,21.30
2022-10-11T10:00:31.060Z,21.30
2022-10-11T10:03:04.533Z,21.30
2022-10-11T10:05:38.515Z,21.30
2022-10-11T10:08:14.439Z,21.30
2022-10-11T10:10:58.481Z,21.30
2022-10-11T10:13:44.296Z,21.20
2022-10-11T10:16:25.544Z,21.30
2022-10-11T10:19:17.947Z,21.30
2022-10-11T10:21:54.517Z,21.30
2022-10-11T10:24:32.811Z,21.20
2022-10-11T10:27:22.606Z,21.30
2022-10-11T10:30:10.874Z,21.30
2022-10-11T10:33:07.858Z,21.20
2022-10-11T10:36:04.700Z,21.20
2022-10-11T10:39:03.774Z,21.20
2022-10-11T10:41:33.948Z,21.20
2022-10-11T10:44:04.281Z,21.20
2022-10-11T10:47:03.174Z,21.20
2022-10-11T10:49:54.266Z,21.20
2022-10-11T10:52:58.478Z,21.20
2022-10-11T10:55:53.869Z,21.20
2022-10-11T10:58:51.581Z,21.10
2022-10-11T11:01:28.848Z,21.20
2022-10-11T11:04:35.874Z,21.10
2022-10-11T11:07:32.353Z,21.10
2022-10-11T11:10:10.475Z,21.10
2022-10-11T11:12:58.797Z,21.10
2022-10-11T11:15:41.330Z,21.10
2022-10-11T11:18:30.142Z,21.10
2022-10-11T11:21:28.423Z,21.10
2022-10-11T11:24:24.784Z,21.00
2022-10-11T11:27:16.040Z,21.00
2022-10-11T11:30:08.179Z,21.00
2022-10-11T11:33:05.298Z,21.00
2022-10-11T11:35:41.257Z,21.00
2022-10-11T11:38:38.561Z,21.00
2022-10-11T11:41:22.968Z,21.00
2022-10-11T11:44:21.804Z,21.00
2022-10-11T11:47:05.538Z,21.00
2022-10-11T11:52:31.926Z,20.90
2022-10-11T11:55:32.546Z,21.00
2022-10-11T11:58:30.265Z,20.90
2022-10-11T12:01:30.259Z,20.90
2022-10-11T12:04:27.893Z,20.90
2022-10-11T12:07:21.374Z,20.90
2022-10-11T12:09:57.000Z,20.80
2022-10-11T12:12:38.061Z,20.90
2022-10-11T12:15:27.689Z,20.90
2022-10-11T12:18:05.322Z,20.80
2022-10-11T12:20:42.542Z,20.80
2022-10-11T12:23:30.920Z,20.80
2022-10-11T12:26:24.851Z,20.80
2022-10-11T12:29:27.484Z,20.80
2022-10-11T12:32:02.446Z,20.80
2022-10-11T12:34:36.337Z,20.80
2022-10-11T12:37:21.795Z,20.80
2022-10-11T12:40:02.006Z,20.70
2022-10-11T12:42:38.238Z,20.80
2022-10-11T12:45:14.796Z,20.70
2022-10-11T12:48:06.358Z,20.70
2022-10-11T12:51:13.055Z,20.70
2022-10-11T12:53:43.156Z,20.70
2022-10-11T12:56:44.680Z,20.70
2022-10-11T12:59:21.478Z,20.70
2022-10-11T13:02:00.081Z,20.60
2022-10-11T13:04:33.397Z,20.60
2022-10-11T13:07:09.401Z,20.60
2022-10-11T13:09:48.123Z,20.70
2022-10-11T13:12:26.622Z,20.60
2022-10-11T13:15:09.113Z,20.60
2022-10-11T13:17:41.722Z,20.60
2022-10-11T13:20:26.990Z,20.60
2022-10-11T13:22:58.701Z,20.60
2022-10-11T13:25:31.344Z,20.60
2022-10-11T13:28:01.666Z,20.60
2022-10-11T13:30:34.934Z,20.60
2022-10-11T13:33:10.531Z,20.60
2022-10-11T13:35:41.449Z,20.60
2022-10-11T13:38:32.918Z,20.60
2022-10-11T13:41:09.802Z,20.60
2022-10-11T13:43:42.479Z,20.50
2022-10-11T13:46:21.367Z,20.50
2022-10-11T13:49:02.117Z,20.50
2022-10-11T13:51:40.077Z,20.50
2022-10-11T13:54:13.905Z,20.50
2022-10-11T13:56:55.181Z,20.50
2022-10-11T13:59:31.777Z,20.50
2022-10-11T14:02:05.948Z,20.50
2022-10-11T14:04:45.223Z,20.50
2022-10-11T14:07:41.520Z,20.50
2022-10-11T14:10:22.614Z,20.50
2022-10-11T14:13:32.728Z,20.50
2022-10-11T14:16:09.011Z,20.50
2022-10-11T14:19:02.377Z,20.40
2022-10-11T14:21:36.319Z,20.40
2022-10-11T14:24:12.237Z,20.40
2022-10-11T14:26:54.741Z,20.40
2022-10-11T14:29:31.145Z,20.40
2022-10-11T14:32:26.627Z,20.40
2022-10-11T14:34:56.977Z,20.40
2022-10-11T14:37:28.199Z,20.40
2022-10-11T14:39:58.308Z,20.40
2022-10-11T14:42:28.563Z,20.40
2022-10-11T14:44:58.700Z,20.40
2022-10-11T14:47:28.815Z,20.30
2022-10-11T14:49:58.907Z,20.40
2022-10-11T14:52:29.160Z,20.30
2022-10-11T14:54:59.306Z,20.30
2022-10-11T14:57:29.451Z,20.30
2022-10-11T14:59:59.637Z,20.30
2022-10-11T15:02:30.115Z,20.30
2022-10-11T15:05:00.286Z,20.30
2022-10-11T15:07:30.405Z,20.30
2022-10-11T15:10:00.638Z,20.30
2022-10-11T15:12:30.764Z,20.30
2022-10-11T15:15:00.913Z,20.30
2022-10-11T15:17:31.128Z,20.20
2022-10-11T15:20:01.359Z,20.20
2022-10-11T15:22:32.066Z,20.20
2022-10-11T15:25:02.182Z,20.20
2022-10-11T15:27:32.318Z,20.20
2022-10-11T15:30:02.755Z,20.20
2022-10-11T15:32:32.849Z,20.20
2022-10-11T15:35:03.010Z,20.20
2022-10-11T15:37:37.173Z,20.20
2022-10-11T15:40:24.830Z,20.10
2022-10-11T15:42:56.721Z,20.10
2022-10-11T15:45:27.551Z,20.10
2022-10-11T15:47:58.243Z,20.10
2022-10-11T15:50:39.024Z,20.10
2022-10-11T15:53:20.131Z,20.10
2022-10-11T15:55:56.266Z,20.10
2022-10-11T15:58:30.516Z,20.10
2022-10-11T16:01:03.943Z,20.10
2022-10-11T16:03:35.484Z,20.10
2022-10-11T16:06:05.997Z,20.00
2022-10-11T16:08:38.726Z,20.00
2022-10-11T16:11:09.996Z,20.00
2022-10-11T16:13:41.020Z,20.00
2022-10-11T16:16:13.308Z,20.00
2022-10-11T16:18:43.578Z,20.00
2022-10-11T16:21:17.198Z,20.00
2022-10-11T16:23:47.339Z,20.00
2022-10-11T16:26:18.179Z,20.00
2022-10-11T16:28:49.823Z,20.00
2022-10-11T16:31:22.527Z,19.90
2022-10-11T16:33:54.503Z,19.90
2022-10-11T16:36:37.841Z,19.90
2022-10-11T16:39:18.103Z,19.90
2022-10-11T16:41:49.430Z,19.90
2022-10-11T16:44:22.490Z,19.90
2022-10-11T16:46:53.559Z,19.90
2022-10-11T16:49:27.085Z,19.90
2022-10-11T16:52:00.870Z,19.90
2022-10-11T16:54:34.296Z,19.90
2022-10-11T16:57:04.479Z,19.90
2022-10-11T16:59:34.603Z,19.80
2022-10-11T17:02:06.719Z,19.80
2022-10-11T17:04:37.317Z,19.80
2022-10-11T17:07:13.978Z,19.80
2022-10-11T17:09:46.216Z,19.80
2022-10-11T17:12:18.683Z,19.80
2022-10-11T17:14:49.492Z,19.80
2022-10-11T17:17:20.701Z,19.80
2022-10-11T17:19:50.941Z,19.80
2022-10-11T17:22:22.651Z,19.80
2022-10-11T17:24:53.249Z,19.80
2022-10-11T17:27:23.644Z,19.70
2022-10-11T17:29:54.034Z,19.70
2022-10-11T17:32:24.339Z,19.70
2022-10-11T17:34:55.609Z,19.70
2022-10-11T17:37:25.990Z,19.70
2022-10-11T17:39:56.599Z,19.70
2022-10-11T17:42:27.106Z,19.70
2022-10-11T17:44:57.436Z,19.70
2022-10-11T17:47:27.914Z,19.70
2022-10-11T17:49:58.134Z,19.70
2022-10-11T17:52:28.543Z,19.70
2022-10-11T17:54:59.091Z,19.70
2022-10-11T17:57:29.535Z,19.70
2022-10-11T17:59:59.694Z,19.70
2022-10-11T18:02:29.801Z,19.70
2022-10-11T18:04:59.978Z,19.70
2022-10-11T18:07:30.220Z,19.70
2022-10-11T18:10:00.467Z,19.60
2022-10-11T18:12:31.750Z,19.60
2022-10-11T18:15:01.818Z,19.60
2022-10-11T18:17:31.910Z,19.60
2022-10-11T18:20:02.111Z,19.60
2022-10-11T18:22:32.310Z,19.60
2022-10-11T18:25:02.476Z,19.50
2022-10-11T18:27:32.665Z,19.50
2022-10-11T18:30:02.775Z,19.50
2022-10-11T18:32:33.406Z,19.50
2022-10-11T18:35:03.661Z,19.50
2022-10-11T18:37:33.914Z,19.50
2022-10-11T18:40:04.109Z,19.50
2022-10-11T18:42:34.350Z,19.50
2022-10-11T18:45:04.711Z,19.50
2022-10-11T18:47:34.871Z,19.40
2022-10-11T18:50:04.997Z,19.50
2022-10-11T18:52:35.174Z,19.50
2022-10-11T18:55:06.265Z,19.40
2022-10-11T18:57:36.620Z,19.40
2022-10-11T19:00:16.848Z,19.40
2022-10-11T19:02:57.825Z,19.40
2022-10-11T19:05:29.625Z,19.40
2022-10-11T19:07:59.926Z,19.40
2022-10-11T19:10:30.147Z,19.40
2022-10-11T19:13:00.373Z,19.30
2022-10-11T19:15:30.470Z,19.30
2022-10-11T19:18:00.800Z,19.40
2022-10-11T19:20:30.913Z,19.30
2022-10-11T19:23:01.044Z,19.40
2022-10-11T19:25:31.178Z,19.40
2022-10-11T19:28:01.411Z,19.40
2022-10-11T19:30:33.580Z,19.40
2022-10-11T19:33:03.722Z,19.30
2022-10-11T19:35:33.885Z,19.30
2022-10-11T19:38:04.261Z,19.30
2022-10-11T19:40:34.475Z,19.30
2022-10-11T19:43:04.951Z,19.30
2022-10-11T19:45:37.977Z,19.30
2022-10-11T19:48:08.138Z,19.30
2022-10-11T19:50:38.280Z,19.20
2022-10-11T19:53:09.209Z,19.30
2022-10-11T19:55:42.940Z,19.20
2022-10-11T19:58:15.818Z,19.20
2022-10-11T20:00:46.504Z,19.20
2022-10-11T20:03:16.709Z,19.20
2022-10-11T20:05:46.832Z,19.20
2022-10-11T20:08:17.202Z,19.20
2022-10-11T20:10:47.370Z,19.20
2022-10-11T20:13:17.737Z,19.20
2022-10-11T20:15:47.916Z,19.20
2022-10-11T20:18:18.087Z,19.20
2022-10-11T20:21:08.594Z,19.20
2022-10-11T20:23:39.125Z,19.30
2022-10-11T20:26:16.473Z,19.20
2022-10-11T20:28:47.276Z,19.20
2022-10-11T20:31:21.830Z,19.20
2022-10-11T20:33:52.211Z,19.20
2022-10-11T20:36:24.292Z,19.30
2022-10-11T20:38:54.467Z,19.30
2022-10-11T20:41:27.203Z,19.20
2022-10-11T20:44:00.441Z,19.30
2022-10-11T20:46:34.031Z,19.20
2022-10-11T20:49:07.312Z,19.20
2022-10-11T20:51:39.883Z,19.20
2022-10-11T20:54:10.629Z,19.20
2022-10-11T20:56:41.267Z,19.30
2022-10-11T20:59:12.309Z,19.20
2022-10-11T21:01:43.650Z,19.30
2022-10-11T21:04:22.917Z,19.20
2022-10-11T21:06:53.198Z,19.30
2022-10-11T21:09:23.352Z,19.30
2022-10-11T21:11:53.551Z,19.30
2022-10-11T21:14:24.071Z,19.30
2022-10-11T21:16:54.266Z,19.30
2022-10-11T21:19:25.327Z,19.30
2022-10-11T21:21:55.509Z,19.30
2022-10-11T21:24:25.743Z,19.30
2022-10-11T21:27:00.264Z,19.20
2022-10-11T21:29:30.882Z,19.20
2022-10-11T21:32:01.057Z,19.20
2022-10-11T21:34:31.200Z,19.20
2022-10-11T21:37:02.182Z,19.20
2022-10-11T21:39:32.312Z,19.30
2022-10-11T21:42:02.534Z,19.20
2022-10-11T21:44:38.587Z,19.30
2022-10-11T21:47:09.116Z,19.30
2022-10-11T21:49:39.772Z,19.30
2022-10-11T21:52:09.951Z,19.30
2022-10-11T21:54:40.276Z,19.30
2022-10-11T21:57:10.421Z,19.30
2022-10-11T21:59:40.584Z,19.30
2022-10-11T22:02:11.214Z,19.30
2022-10-11T22:04:41.509Z,19.30
2022-10-11T22:07:12.040Z,19.30
2022-10-11T22:09:42.469Z,19.30
2022-10-11T22:12:12.785Z,19.30
2022-10-11T22:14:43.117Z,19.30
2022-10-11T22:17:13.613Z,19.30
2022-10-11T22:19:43.966Z,19.30
2022-10-11T22:22:14.154Z,19.30
2022-10-11T22:24:44.827Z,19.30
2022-10-11T22:27:15.168Z,19.30
2022-10-11T22:29:45.361Z,19.30
2022-10-11T22:32:15.512Z,19.30
2022-10-11T22:34:45.954Z,19.30
2022-10-11T22:37:16.196Z,19.30
2022-10-11T22:39:46.421Z,19.40
2022-10-11T22:42:16.632Z,19.30
2022-10-11T22:44:46.822Z,19.30
2022-10-11T22:47:16.955Z,19.40
2022-10-11T22:49:47.042Z,19.40
2022-10-11T22:52:17.747Z,19.40
2022-10-11T22:54:47.855Z,19.40
2022-10-11T22:57:18.043Z,19.40
2022-10-11T22:59:48.151Z,19.40
2022-10-11T23:02:18.324Z,19.40
2022-10-11T23:04:48.485Z,19.40
2022-10-11T23:07:18.644Z,19.40
2022-10-11T23:09:48.756Z,19.40
2022-10-11T23:12:18.921Z,19.40
2022-10-11T23:14:49.158Z,19.40
2022-10-11T23:17:19.559Z,19.40
2022-10-11T23:19:49.768Z,19.50
2022-10-11T23:22:20.354Z,19.50
2022-10-11T23:24:50.495Z,19.50
2022-10-11T23:27:20.706Z,19.50
2022-10-11T23:29:50.828Z,19.50
2022-10-11T23:32:20.984Z,19.50
2022-10-11T23:34:51.339Z,19.50
2022-10-11T23:37:21.705Z,19.50
2022-10-11T23:39:51.906Z,19.50
2022-10-11T23:42:22.066Z,19.50
2022-10-11T23:44:53.630Z,19.50
2022-10-11T23:47:23.803Z,19.50
2022-10-11T23:49:54.346Z,19.50
2022-10-11T23:52:24.513Z,19.60
2022-10-11T23:54:54.612Z,19.60
2022-10-11T23:57:24.780Z,19.60
2022-10-11T23:59:55.011Z,19.60
